sensor_id;sensor_type;location;lat;lon;timestamp;temperature;humidity
3037;DHT22;1528;52.550;13.408;2023-12-14T00:01:28;5.40;53.30
3037;DHT22;1528;52.550;13.408;2023-12-14T00:04:14;5.40;53.10
3037;DHT22;1528;52.550;13.408;2023-12-14T00:06:59;5.40;52.80
3037;DHT22;1528;52.550;13.408;2023-12-14T00:09:45;5.30;53.30
3037;DHT22;1528;52.550;13.408;2023-12-14T00:12:31;5.30;53.70
3037;DHT22;1528;52.550;13.408;2023-12-14T00:15:16;5.30;53.30
3037;DHT22;1528;52.550;13.408;2023-12-14T00:18:03;5.30;53.10
3037;DHT22;1528;52.550;13.408;2023-12-14T00:20:49;5.30;53.00
3037;DHT22;1528;52.550;13.408;2023-12-14T00:23:35;5.30;53.00
3037;DHT22;1528;52.550;13.408;2023-12-14T00:26:21;5.30;53.70
3037;DHT22;1528;52.550;13.408;2023-12-14T00:29:06;5.30;53.10
3037;DHT22;1528;52.550;13.408;2023-12-14T00:31:52;5.30;53.30
3037;DHT22;1528;52.550;13.408;2023-12-14T00:34:39;5.40;53.30
3037;DHT22;1528;52.550;13.408;2023-12-14T00:37:25;5.40;53.20
3037;DHT22;1528;52.550;13.408;2023-12-14T00:40:11;5.50;53.40
3037;DHT22;1528;52.550;13.408;2023-12-14T00:42:57;5.40;52.70
3037;DHT22;1528;52.550;13.408;2023-12-14T00:45:43;5.30;53.00
3037;DHT22;1528;52.550;13.408;2023-12-14T00:48:28;5.30;52.80
3037;DHT22;1528;52.550;13.408;2023-12-14T00:51:15;5.50;52.90
3037;DHT22;1528;52.550;13.408;2023-12-14T00:54:01;5.20;52.60
3037;DHT22;1528;52.550;13.408;2023-12-14T00:56:46;5.30;53.10
3037;DHT22;1528;52.550;13.408;2023-12-14T00:59:32;5.30;52.80
3037;DHT22;1528;52.550;13.408;2023-12-14T01:02:17;5.30;52.50
3037;DHT22;1528;52.550;13.408;2023-12-14T01:05:04;5.30;52.30
3037;DHT22;1528;52.550;13.408;2023-12-14T01:07:51;5.20;52.20
3037;DHT22;1528;52.550;13.408;2023-12-14T01:10:36;5.10;52.40
3037;DHT22;1528;52.550;13.408;2023-12-14T01:13:22;5.10;52.40
3037;DHT22;1528;52.550;13.408;2023-12-14T01:16:08;5.00;52.40
3037;DHT22;1528;52.550;13.408;2023-12-14T01:18:53;5.00;52.20
3037;DHT22;1528;52.550;13.408;2023-12-14T01:21:39;4.90;52.40
3037;DHT22;1528;52.550;13.408;2023-12-14T01:24:26;4.90;52.50
3037;DHT22;1528;52.550;13.408;2023-12-14T01:27:12;5.10;52.60
3037;DHT22;1528;52.550;13.408;2023-12-14T01:29:58;4.90;52.40
3037;DHT22;1528;52.550;13.408;2023-12-14T01:32:43;4.90;52.50
3037;DHT22;1528;52.550;13.408;2023-12-14T01:35:29;4.80;52.40
3037;DHT22;1528;52.550;13.408;2023-12-14T01:38:14;4.80;52.60
3037;DHT22;1528;52.550;13.408;2023-12-14T01:41:02;4.80;52.50
3037;DHT22;1528;52.550;13.408;2023-12-14T01:43:47;4.80;52.40
3037;DHT22;1528;52.550;13.408;2023-12-14T01:46:33;4.80;52.00
3037;DHT22;1528;52.550;13.408;2023-12-14T01:49:19;4.80;52.40
3037;DHT22;1528;52.550;13.408;2023-12-14T01:52:05;4.80;52.60
3037;DHT22;1528;52.550;13.408;2023-12-14T01:54:51;4.90;52.40
3037;DHT22;1528;52.550;13.408;2023-12-14T01:57:38;4.80;52.50
3037;DHT22;1528;52.550;13.408;2023-12-14T02:00:29;4.80;52.30
3037;DHT22;1528;52.550;13.408;2023-12-14T02:03:16;4.90;52.50
3037;DHT22;1528;52.550;13.408;2023-12-14T02:06:02;4.80;52.00
3037;DHT22;1528;52.550;13.408;2023-12-14T02:08:48;4.80;52.50
3037;DHT22;1528;52.550;13.408;2023-12-14T02:11:33;4.70;52.20
3037;DHT22;1528;52.550;13.408;2023-12-14T02:14:21;4.80;52.40
3037;DHT22;1528;52.550;13.408;2023-12-14T02:17:07;4.80;52.20
3037;DHT22;1528;52.550;13.408;2023-12-14T02:19:53;4.80;52.20
3037;DHT22;1528;52.550;13.408;2023-12-14T02:22:50;4.80;52.40
3037;DHT22;1528;52.550;13.408;2023-12-14T02:25:35;4.70;52.10
3037;DHT22;1528;52.550;13.408;2023-12-14T02:28:21;4.70;52.20
3037;DHT22;1528;52.550;13.408;2023-12-14T02:31:07;4.70;51.90
3037;DHT22;1528;52.550;13.408;2023-12-14T02:33:52;4.90;52.30
3037;DHT22;1528;52.550;13.408;2023-12-14T02:36:38;4.70;53.10
3037;DHT22;1528;52.550;13.408;2023-12-14T02:39:25;4.70;52.10
3037;DHT22;1528;52.550;13.408;2023-12-14T02:42:10;4.70;52.20
3037;DHT22;1528;52.550;13.408;2023-12-14T02:44:56;4.70;52.10
3037;DHT22;1528;52.550;13.408;2023-12-14T02:47:42;4.70;52.00
3037;DHT22;1528;52.550;13.408;2023-12-14T02:50:28;4.60;51.80
3037;DHT22;1528;52.550;13.408;2023-12-14T02:53:13;4.60;52.00
3037;DHT22;1528;52.550;13.408;2023-12-14T02:56:03;4.70;52.00
3037;DHT22;1528;52.550;13.408;2023-12-14T02:58:48;4.60;51.90
3037;DHT22;1528;52.550;13.408;2023-12-14T03:01:35;4.60;52.10
3037;DHT22;1528;52.550;13.408;2023-12-14T03:04:21;4.70;52.40
3037;DHT22;1528;52.550;13.408;2023-12-14T03:10:48;4.80;52.20
3037;DHT22;1528;52.550;13.408;2023-12-14T03:13:35;4.80;51.60
3037;DHT22;1528;52.550;13.408;2023-12-14T03:16:21;4.80;51.70
3037;DHT22;1528;52.550;13.408;2023-12-14T03:19:06;4.70;52.00
3037;DHT22;1528;52.550;13.408;2023-12-14T03:21:52;4.80;52.10
3037;DHT22;1528;52.550;13.408;2023-12-14T03:24:38;4.70;51.90
3037;DHT22;1528;52.550;13.408;2023-12-14T03:27:24;4.80;52.00
3037;DHT22;1528;52.550;13.408;2023-12-14T03:30:11;5.10;52.10
3037;DHT22;1528;52.550;13.408;2023-12-14T03:32:57;4.80;51.70
3037;DHT22;1528;52.550;13.408;2023-12-14T03:35:42;4.80;51.70
3037;DHT22;1528;52.550;13.408;2023-12-14T03:38:28;4.80;51.70
3037;DHT22;1528;52.550;13.408;2023-12-14T03:41:14;4.80;51.60
3037;DHT22;1528;52.550;13.408;2023-12-14T03:43:59;4.80;51.60
3037;DHT22;1528;52.550;13.408;2023-12-14T03:46:46;4.80;51.30
3037;DHT22;1528;52.550;13.408;2023-12-14T03:49:36;4.80;51.50
3037;DHT22;1528;52.550;13.408;2023-12-14T03:52:22;4.80;51.20
3037;DHT22;1528;52.550;13.408;2023-12-14T03:55:08;4.90;51.50
3037;DHT22;1528;52.550;13.408;2023-12-14T03:57:54;4.90;51.30
3037;DHT22;1528;52.550;13.408;2023-12-14T04:00:39;4.90;51.20
3037;DHT22;1528;52.550;13.408;2023-12-14T04:03:26;4.80;51.30
3037;DHT22;1528;52.550;13.408;2023-12-14T04:06:12;4.80;51.00
3037;DHT22;1528;52.550;13.408;2023-12-14T04:08:58;4.90;51.30
3037;DHT22;1528;52.550;13.408;2023-12-14T04:11:43;4.80;51.20
3037;DHT22;1528;52.550;13.408;2023-12-14T04:14:29;5.00;51.20
3037;DHT22;1528;52.550;13.408;2023-12-14T04:17:15;4.80;50.90
3037;DHT22;1528;52.550;13.408;2023-12-14T04:20:03;4.80;51.10
3037;DHT22;1528;52.550;13.408;2023-12-14T04:22:50;4.80;51.20
3037;DHT22;1528;52.550;13.408;2023-12-14T04:25:35;4.80;51.30
3037;DHT22;1528;52.550;13.408;2023-12-14T04:28:21;4.80;51.70
3037;DHT22;1528;52.550;13.408;2023-12-14T04:31:07;4.80;51.50
3037;DHT22;1528;52.550;13.408;2023-12-14T04:33:52;4.90;51.50
3037;DHT22;1528;52.550;13.408;2023-12-14T04:36:39;4.90;51.20
3037;DHT22;1528;52.550;13.408;2023-12-14T04:39:25;4.90;51.30
3037;DHT22;1528;52.550;13.408;2023-12-14T04:42:11;4.90;51.40
3037;DHT22;1528;52.550;13.408;2023-12-14T04:44:56;5.00;51.60
3037;DHT22;1528;52.550;13.408;2023-12-14T04:47:42;5.00;51.30
3037;DHT22;1528;52.550;13.408;2023-12-14T04:50:27;5.00;51.40
3037;DHT22;1528;52.550;13.408;2023-12-14T04:53:14;4.90;51.20
3037;DHT22;1528;52.550;13.408;2023-12-14T04:56:00;4.90;51.40
3037;DHT22;1528;52.550;13.408;2023-12-14T04:58:45;5.00;51.20
3037;DHT22;1528;52.550;13.408;2023-12-14T05:01:31;4.90;51.10
3037;DHT22;1528;52.550;13.408;2023-12-14T05:04:17;4.90;51.40
3037;DHT22;1528;52.550;13.408;2023-12-14T05:07:03;4.90;51.40
3037;DHT22;1528;52.550;13.408;2023-12-14T05:09:49;4.90;51.40
3037;DHT22;1528;52.550;13.408;2023-12-14T05:12:35;4.90;51.50
3037;DHT22;1528;52.550;13.408;2023-12-14T05:15:20;5.00;51.40
3037;DHT22;1528;52.550;13.408;2023-12-14T05:18:06;5.00;51.40
3037;DHT22;1528;52.550;13.408;2023-12-14T05:20:52;4.90;51.30
3037;DHT22;1528;52.550;13.408;2023-12-14T05:23:38;4.90;51.70
3037;DHT22;1528;52.550;13.408;2023-12-14T05:26:25;5.00;51.70
3037;DHT22;1528;52.550;13.408;2023-12-14T05:29:10;5.00;51.40
3037;DHT22;1528;52.550;13.408;2023-12-14T05:31:56;5.00;51.30
3037;DHT22;1528;52.550;13.408;2023-12-14T05:34:42;5.20;51.50
3037;DHT22;1528;52.550;13.408;2023-12-14T05:37:27;5.00;51.20
3037;DHT22;1528;52.550;13.408;2023-12-14T05:40:13;5.00;51.30
3037;DHT22;1528;52.550;13.408;2023-12-14T05:43:00;5.10;51.20
3037;DHT22;1528;52.550;13.408;2023-12-14T05:45:45;5.10;51.30
3037;DHT22;1528;52.550;13.408;2023-12-14T05:48:31;5.10;51.10
3037;DHT22;1528;52.550;13.408;2023-12-14T05:51:26;5.00;51.20
3037;DHT22;1528;52.550;13.408;2023-12-14T05:54:12;5.30;51.60
3037;DHT22;1528;52.550;13.408;2023-12-14T05:56:58;5.00;51.30
3037;DHT22;1528;52.550;13.408;2023-12-14T05:59:45;5.00;51.40
3037;DHT22;1528;52.550;13.408;2023-12-14T06:02:30;4.70;51.20
3037;DHT22;1528;52.550;13.408;2023-12-14T06:05:17;5.10;51.50
3037;DHT22;1528;52.550;13.408;2023-12-14T06:08:03;5.00;51.30
3037;DHT22;1528;52.550;13.408;2023-12-14T06:10:49;4.90;51.20
3037;DHT22;1528;52.550;13.408;2023-12-14T06:13:35;4.90;51.10
3037;DHT22;1528;52.550;13.408;2023-12-14T06:16:22;4.90;50.90
3037;DHT22;1528;52.550;13.408;2023-12-14T06:19:07;5.00;51.20
3037;DHT22;1528;52.550;13.408;2023-12-14T06:21:53;5.00;51.00
3037;DHT22;1528;52.550;13.408;2023-12-14T06:24:38;5.10;51.20
3037;DHT22;1528;52.550;13.408;2023-12-14T06:27:24;5.00;51.00
3037;DHT22;1528;52.550;13.408;2023-12-14T06:30:11;5.00;50.80
3037;DHT22;1528;52.550;13.408;2023-12-14T06:32:58;5.00;50.90
3037;DHT22;1528;52.550;13.408;2023-12-14T06:35:43;4.90;50.60
3037;DHT22;1528;52.550;13.408;2023-12-14T06:38:29;4.90;50.40
3037;DHT22;1528;52.550;13.408;2023-12-14T06:41:18;4.90;50.10
3037;DHT22;1528;52.550;13.408;2023-12-14T06:44:04;4.90;50.50
3037;DHT22;1528;52.550;13.408;2023-12-14T06:46:50;5.10;50.50
3037;DHT22;1528;52.550;13.408;2023-12-14T06:49:37;4.90;50.30
3037;DHT22;1528;52.550;13.408;2023-12-14T06:52:25;4.90;50.40
3037;DHT22;1528;52.550;13.408;2023-12-14T06:55:11;5.00;50.40
3037;DHT22;1528;52.550;13.408;2023-12-14T06:57:58;5.00;50.20
3037;DHT22;1528;52.550;13.408;2023-12-14T07:00:44;5.00;50.20
3037;DHT22;1528;52.550;13.408;2023-12-14T07:03:29;5.00;50.30
3037;DHT22;1528;52.550;13.408;2023-12-14T07:06:17;5.10;50.00
3037;DHT22;1528;52.550;13.408;2023-12-14T07:09:03;5.00;49.80
3037;DHT22;1528;52.550;13.408;2023-12-14T07:11:49;5.00;50.00
3037;DHT22;1528;52.550;13.408;2023-12-14T07:14:35;5.00;49.90
3037;DHT22;1528;52.550;13.408;2023-12-14T07:17:21;5.00;49.80
3037;DHT22;1528;52.550;13.408;2023-12-14T07:20:07;5.10;50.00
3037;DHT22;1528;52.550;13.408;2023-12-14T07:22:54;5.10;49.60
3037;DHT22;1528;52.550;13.408;2023-12-14T07:25:40;5.10;50.00
3037;DHT22;1528;52.550;13.408;2023-12-14T07:28:25;5.40;49.80
3037;DHT22;1528;52.550;13.408;2023-12-14T07:31:11;5.30;49.70
3037;DHT22;1528;52.550;13.408;2023-12-14T07:33:57;5.20;49.30
3037;DHT22;1528;52.550;13.408;2023-12-14T07:36:42;5.20;49.70
3037;DHT22;1528;52.550;13.408;2023-12-14T07:39:29;5.20;48.90
3037;DHT22;1528;52.550;13.408;2023-12-14T07:42:15;5.20;48.80
3037;DHT22;1528;52.550;13.408;2023-12-14T07:45:04;5.10;48.50
3037;DHT22;1528;52.550;13.408;2023-12-14T07:47:50;5.10;48.70
3037;DHT22;1528;52.550;13.408;2023-12-14T07:50:36;5.10;48.70
3037;DHT22;1528;52.550;13.408;2023-12-14T07:53:22;5.20;48.70
3037;DHT22;1528;52.550;13.408;2023-12-14T07:56:09;5.10;48.70
3037;DHT22;1528;52.550;13.408;2023-12-14T07:58:54;5.20;48.50
3037;DHT22;1528;52.550;13.408;2023-12-14T08:01:40;5.10;48.20
3037;DHT22;1528;52.550;13.408;2023-12-14T08:04:26;5.10;48.20
3037;DHT22;1528;52.550;13.408;2023-12-14T08:07:12;5.10;48.40
3037;DHT22;1528;52.550;13.408;2023-12-14T08:09:58;5.10;48.30
3037;DHT22;1528;52.550;13.408;2023-12-14T08:12:45;5.20;48.50
3037;DHT22;1528;52.550;13.408;2023-12-14T08:15:32;5.10;48.70
3037;DHT22;1528;52.550;13.408;2023-12-14T08:18:17;5.20;48.10
3037;DHT22;1528;52.550;13.408;2023-12-14T08:21:03;5.20;48.40
3037;DHT22;1528;52.550;13.408;2023-12-14T08:23:49;5.20;48.20
3037;DHT22;1528;52.550;13.408;2023-12-14T08:26:35;5.30;48.50
3037;DHT22;1528;52.550;13.408;2023-12-14T08:29:22;5.20;47.90
3037;DHT22;1528;52.550;13.408;2023-12-14T08:32:08;5.30;48.10
3037;DHT22;1528;52.550;13.408;2023-12-14T08:34:53;5.30;48.00
3037;DHT22;1528;52.550;13.408;2023-12-14T08:37:39;5.30;48.10
3037;DHT22;1528;52.550;13.408;2023-12-14T08:40:25;5.30;48.00
3037;DHT22;1528;52.550;13.408;2023-12-14T08:43:10;5.30;47.80
3037;DHT22;1528;52.550;13.408;2023-12-14T08:45:58;5.30;47.80
3037;DHT22;1528;52.550;13.408;2023-12-14T08:52:24;5.30;47.80
3037;DHT22;1528;52.550;13.408;2023-12-14T08:55:09;5.30;47.80
3037;DHT22;1528;52.550;13.408;2023-12-14T08:57:55;5.40;48.10
3037;DHT22;1528;52.550;13.408;2023-12-14T09:00:40;5.40;47.70
3037;DHT22;1528;52.550;13.408;2023-12-14T09:03:28;5.70;48.10
3037;DHT22;1528;52.550;13.408;2023-12-14T09:06:13;5.50;47.70
3037;DHT22;1528;52.550;13.408;2023-12-14T09:08:59;5.50;47.70
3037;DHT22;1528;52.550;13.408;2023-12-14T09:11:45;5.50;47.40
3037;DHT22;1528;52.550;13.408;2023-12-14T09:14:30;5.50;47.10
3037;DHT22;1528;52.550;13.408;2023-12-14T09:17:16;5.50;47.40
3037;DHT22;1528;52.550;13.408;2023-12-14T09:20:04;5.40;47.60
3037;DHT22;1528;52.550;13.408;2023-12-14T09:22:50;5.40;47.30
3037;DHT22;1528;52.550;13.408;2023-12-14T09:25:36;5.60;47.50
3037;DHT22;1528;52.550;13.408;2023-12-14T09:28:21;5.50;47.50
3037;DHT22;1528;52.550;13.408;2023-12-14T09:31:07;5.50;47.60
3037;DHT22;1528;52.550;13.408;2023-12-14T09:33:52;5.60;47.30
3037;DHT22;1528;52.550;13.408;2023-12-14T09:36:39;5.60;47.10
3037;DHT22;1528;52.550;13.408;2023-12-14T09:39:25;5.60;47.20
3037;DHT22;1528;52.550;13.408;2023-12-14T09:42:12;5.80;47.00
3037;DHT22;1528;52.550;13.408;2023-12-14T09:45:01;5.60;46.60
3037;DHT22;1528;52.550;13.408;2023-12-14T09:47:47;5.70;46.80
3037;DHT22;1528;52.550;13.408;2023-12-14T09:50:33;5.80;46.50
3037;DHT22;1528;52.550;13.408;2023-12-14T09:53:20;5.80;46.60
3037;DHT22;1528;52.550;13.408;2023-12-14T09:56:06;5.70;46.00
3037;DHT22;1528;52.550;13.408;2023-12-14T09:58:52;5.70;46.00
3037;DHT22;1528;52.550;13.408;2023-12-14T10:01:37;5.60;45.90
3037;DHT22;1528;52.550;13.408;2023-12-14T10:04:23;5.60;45.50
3037;DHT22;1528;52.550;13.408;2023-12-14T10:07:09;5.50;45.80
3037;DHT22;1528;52.550;13.408;2023-12-14T10:10:09;5.50;45.80
3037;DHT22;1528;52.550;13.408;2023-12-14T10:12:55;5.40;45.50
3037;DHT22;1528;52.550;13.408;2023-12-14T10:15:41;5.50;45.80
3037;DHT22;1528;52.550;13.408;2023-12-14T10:18:27;5.60;45.90
3037;DHT22;1528;52.550;13.408;2023-12-14T10:21:13;5.60;45.90
3037;DHT22;1528;52.550;13.408;2023-12-14T10:23:59;5.60;45.90
3037;DHT22;1528;52.550;13.408;2023-12-14T10:26:47;5.60;45.20
3037;DHT22;1528;52.550;13.408;2023-12-14T10:29:33;5.60;46.00
3037;DHT22;1528;52.550;13.408;2023-12-14T10:32:20;5.60;45.10
3037;DHT22;1528;52.550;13.408;2023-12-14T10:35:06;5.70;45.70
3037;DHT22;1528;52.550;13.408;2023-12-14T10:37:51;5.80;45.30
3037;DHT22;1528;52.550;13.408;2023-12-14T10:40:38;5.70;44.80
3037;DHT22;1528;52.550;13.408;2023-12-14T10:43:29;5.80;45.00
3037;DHT22;1528;52.550;13.408;2023-12-14T10:46:16;5.80;44.70
3037;DHT22;1528;52.550;13.408;2023-12-14T10:49:02;5.70;44.30
3037;DHT22;1528;52.550;13.408;2023-12-14T10:51:48;5.60;44.40
3037;DHT22;1528;52.550;13.408;2023-12-14T10:54:35;5.60;44.50
3037;DHT22;1528;52.550;13.408;2023-12-14T10:57:22;5.60;44.20
3037;DHT22;1528;52.550;13.408;2023-12-14T11:00:10;5.60;44.50
3037;DHT22;1528;52.550;13.408;2023-12-14T11:02:57;5.60;44.10
3037;DHT22;1528;52.550;13.408;2023-12-14T11:05:44;5.60;43.70
3037;DHT22;1528;52.550;13.408;2023-12-14T11:08:30;5.60;43.70
3037;DHT22;1528;52.550;13.408;2023-12-14T11:11:19;5.60;43.90
3037;DHT22;1528;52.550;13.408;2023-12-14T11:14:07;5.70;43.60
3037;DHT22;1528;52.550;13.408;2023-12-14T11:16:56;5.60;43.80
3037;DHT22;1528;52.550;13.408;2023-12-14T11:19:47;5.70;43.90
3037;DHT22;1528;52.550;13.408;2023-12-14T11:22:35;5.80;43.70
3037;DHT22;1528;52.550;13.408;2023-12-14T11:25:23;5.90;43.20
3037;DHT22;1528;52.550;13.408;2023-12-14T11:28:09;5.70;43.30
3037;DHT22;1528;52.550;13.408;2023-12-14T11:30:55;5.80;43.10
3037;DHT22;1528;52.550;13.408;2023-12-14T11:33:42;5.80;43.00
3037;DHT22;1528;52.550;13.408;2023-12-14T11:36:28;5.80;42.90
3037;DHT22;1528;52.550;13.408;2023-12-14T11:39:14;5.80;42.70
3037;DHT22;1528;52.550;13.408;2023-12-14T11:42:01;5.70;42.40
3037;DHT22;1528;52.550;13.408;2023-12-14T11:44:48;5.80;42.40
3037;DHT22;1528;52.550;13.408;2023-12-14T11:47:34;5.70;42.40
3037;DHT22;1528;52.550;13.408;2023-12-14T11:50:21;5.80;42.80
3037;DHT22;1528;52.550;13.408;2023-12-14T11:53:08;5.90;42.70
3037;DHT22;1528;52.550;13.408;2023-12-14T11:55:53;6.00;42.40
3037;DHT22;1528;52.550;13.408;2023-12-14T11:58:41;5.90;41.70
3037;DHT22;1528;52.550;13.408;2023-12-14T12:01:26;5.90;42.10
3037;DHT22;1528;52.550;13.408;2023-12-14T12:04:12;5.90;42.10
3037;DHT22;1528;52.550;13.408;2023-12-14T12:07:04;5.90;41.90
3037;DHT22;1528;52.550;13.408;2023-12-14T12:09:51;5.90;41.80
3037;DHT22;1528;52.550;13.408;2023-12-14T12:12:38;5.90;41.70
3037;DHT22;1528;52.550;13.408;2023-12-14T12:15:24;5.90;41.80
3037;DHT22;1528;52.550;13.408;2023-12-14T12:18:11;5.90;42.00
3037;DHT22;1528;52.550;13.408;2023-12-14T12:20:56;5.90;42.10
3037;DHT22;1528;52.550;13.408;2023-12-14T12:23:46;5.90;41.90
3037;DHT22;1528;52.550;13.408;2023-12-14T12:26:31;5.90;42.10
3037;DHT22;1528;52.550;13.408;2023-12-14T12:29:17;5.90;42.50
3037;DHT22;1528;52.550;13.408;2023-12-14T12:32:02;6.00;42.30
3037;DHT22;1528;52.550;13.408;2023-12-14T12:34:48;5.90;42.40
3037;DHT22;1528;52.550;13.408;2023-12-14T12:37:34;5.90;42.10
3037;DHT22;1528;52.550;13.408;2023-12-14T12:40:22;5.90;42.10
3037;DHT22;1528;52.550;13.408;2023-12-14T12:43:09;5.90;42.40
3037;DHT22;1528;52.550;13.408;2023-12-14T12:45:55;5.90;42.50
3037;DHT22;1528;52.550;13.408;2023-12-14T12:48:42;6.00;42.80
3037;DHT22;1528;52.550;13.408;2023-12-14T12:51:28;6.00;42.70
3037;DHT22;1528;52.550;13.408;2023-12-14T12:54:14;5.90;42.40
3037;DHT22;1528;52.550;13.408;2023-12-14T12:57:01;5.90;42.70
3037;DHT22;1528;52.550;13.408;2023-12-14T12:59:47;6.10;42.90
3037;DHT22;1528;52.550;13.408;2023-12-14T13:02:32;6.10;42.20
3037;DHT22;1528;52.550;13.408;2023-12-14T13:05:18;6.10;42.00
3037;DHT22;1528;52.550;13.408;2023-12-14T13:08:03;6.00;42.50
3037;DHT22;1528;52.550;13.408;2023-12-14T13:10:49;5.90;42.70
3037;DHT22;1528;52.550;13.408;2023-12-14T13:13:37;5.90;42.40
3037;DHT22;1528;52.550;13.408;2023-12-14T13:16:22;5.90;42.30
3037;DHT22;1528;52.550;13.408;2023-12-14T13:19:08;6.00;42.20
3037;DHT22;1528;52.550;13.408;2023-12-14T13:21:54;5.90;42.80
3037;DHT22;1528;52.550;13.408;2023-12-14T13:24:40;6.00;42.90
3037;DHT22;1528;52.550;13.408;2023-12-14T13:27:26;6.10;42.50
3037;DHT22;1528;52.550;13.408;2023-12-14T13:30:13;6.10;42.50
3037;DHT22;1528;52.550;13.408;2023-12-14T13:33:01;6.00;42.20
3037;DHT22;1528;52.550;13.408;2023-12-14T13:35:48;6.00;42.50
3037;DHT22;1528;52.550;13.408;2023-12-14T13:38:33;6.10;42.60
3037;DHT22;1528;52.550;13.408;2023-12-14T13:41:20;6.10;42.50
3037;DHT22;1528;52.550;13.408;2023-12-14T13:44:06;6.00;42.50
3037;DHT22;1528;52.550;13.408;2023-12-14T13:46:53;5.90;42.20
3037;DHT22;1528;52.550;13.408;2023-12-14T13:49:38;5.80;42.40
3037;DHT22;1528;52.550;13.408;2023-12-14T13:52:24;5.80;42.70
3037;DHT22;1528;52.550;13.408;2023-12-14T13:55:09;5.80;42.70
3037;DHT22;1528;52.550;13.408;2023-12-14T13:57:55;5.80;42.70
3037;DHT22;1528;52.550;13.408;2023-12-14T14:00:42;5.70;42.80
3037;DHT22;1528;52.550;13.408;2023-12-14T14:03:29;5.70;42.90
3037;DHT22;1528;52.550;13.408;2023-12-14T14:06:15;5.60;42.80
3037;DHT22;1528;52.550;13.408;2023-12-14T14:09:01;5.50;43.00
3037;DHT22;1528;52.550;13.408;2023-12-14T14:11:47;5.70;43.60
3037;DHT22;1528;52.550;13.408;2023-12-14T14:14:34;5.50;43.40
3037;DHT22;1528;52.550;13.408;2023-12-14T14:17:20;5.40;43.20
3037;DHT22;1528;52.550;13.408;2023-12-14T14:20:08;5.40;43.60
3037;DHT22;1528;52.550;13.408;2023-12-14T14:22:54;5.40;43.60
3037;DHT22;1528;52.550;13.408;2023-12-14T14:25:40;5.50;43.50
3037;DHT22;1528;52.550;13.408;2023-12-14T14:28:26;5.50;43.40
3037;DHT22;1528;52.550;13.408;2023-12-14T14:31:11;5.50;43.40
3037;DHT22;1528;52.550;13.408;2023-12-14T14:33:57;5.40;43.40
3037;DHT22;1528;52.550;13.408;2023-12-14T14:36:44;5.50;43.40
3037;DHT22;1528;52.550;13.408;2023-12-14T14:39:29;5.50;43.40
3037;DHT22;1528;52.550;13.408;2023-12-14T14:42:15;5.40;43.30
3037;DHT22;1528;52.550;13.408;2023-12-14T14:45:01;5.40;43.50
3037;DHT22;1528;52.550;13.408;2023-12-14T14:47:46;5.40;43.20
3037;DHT22;1528;52.550;13.408;2023-12-14T14:50:32;5.40;43.30
3037;DHT22;1528;52.550;13.408;2023-12-14T14:53:19;5.40;43.40
3037;DHT22;1528;52.550;13.408;2023-12-14T14:56:05;5.30;43.30
3037;DHT22;1528;52.550;13.408;2023-12-14T14:58:50;5.30;43.50
3037;DHT22;1528;52.550;13.408;2023-12-14T15:01:36;5.20;43.50
3037;DHT22;1528;52.550;13.408;2023-12-14T15:04:22;5.20;43.60
3037;DHT22;1528;52.550;13.408;2023-12-14T15:07:07;5.20;43.70
3037;DHT22;1528;52.550;13.408;2023-12-14T15:09:54;5.20;43.70
3037;DHT22;1528;52.550;13.408;2023-12-14T15:12:40;5.20;43.90
3037;DHT22;1528;52.550;13.408;2023-12-14T15:15:25;5.20;43.60
3037;DHT22;1528;52.550;13.408;2023-12-14T15:18:11;5.20;43.90
3037;DHT22;1528;52.550;13.408;2023-12-14T15:20:56;5.20;43.80
3037;DHT22;1528;52.550;13.408;2023-12-14T15:23:42;5.30;44.10
3037;DHT22;1528;52.550;13.408;2023-12-14T15:26:29;5.30;44.50
3037;DHT22;1528;52.550;13.408;2023-12-14T15:29:17;5.50;44.30
3037;DHT22;1528;52.550;13.408;2023-12-14T15:32:02;5.30;44.60
3037;DHT22;1528;52.550;13.408;2023-12-14T15:34:48;5.40;44.10
3037;DHT22;1528;52.550;13.408;2023-12-14T15:37:34;5.40;43.80
3037;DHT22;1528;52.550;13.408;2023-12-14T15:40:19;5.40;43.80
3037;DHT22;1528;52.550;13.408;2023-12-14T15:43:06;5.40;43.60
3037;DHT22;1528;52.550;13.408;2023-12-14T15:45:52;5.40;44.30
3037;DHT22;1528;52.550;13.408;2023-12-14T15:48:38;5.50;43.80
3037;DHT22;1528;52.550;13.408;2023-12-14T15:51:23;5.50;43.50
3037;DHT22;1528;52.550;13.408;2023-12-14T15:54:09;5.40;43.20
3037;DHT22;1528;52.550;13.408;2023-12-14T15:56:54;5.40;43.30
3037;DHT22;1528;52.550;13.408;2023-12-14T15:59:41;5.40;43.20
3037;DHT22;1528;52.550;13.408;2023-12-14T16:02:27;5.40;43.40
3037;DHT22;1528;52.550;13.408;2023-12-14T16:05:13;5.40;43.20
3037;DHT22;1528;52.550;13.408;2023-12-14T16:07:58;5.40;42.90
3037;DHT22;1528;52.550;13.408;2023-12-14T16:10:44;5.50;43.20
3037;DHT22;1528;52.550;13.408;2023-12-14T16:13:31;5.50;43.00
3037;DHT22;1528;52.550;13.408;2023-12-14T16:16:19;5.40;42.70
3037;DHT22;1528;52.550;13.408;2023-12-14T16:19:05;5.40;43.10
3037;DHT22;1528;52.550;13.408;2023-12-14T16:21:50;5.50;42.70
3037;DHT22;1528;52.550;13.408;2023-12-14T16:24:36;5.40;42.60
3037;DHT22;1528;52.550;13.408;2023-12-14T16:27:22;5.40;42.40
3037;DHT22;1528;52.550;13.408;2023-12-14T16:30:09;5.40;42.70
3037;DHT22;1528;52.550;13.408;2023-12-14T16:32:55;5.40;42.40
3037;DHT22;1528;52.550;13.408;2023-12-14T16:35:41;5.40;42.60
3037;DHT22;1528;52.550;13.408;2023-12-14T16:38:26;5.40;42.10
3037;DHT22;1528;52.550;13.408;2023-12-14T16:41:12;5.40;42.40
3037;DHT22;1528;52.550;13.408;2023-12-14T16:43:58;5.40;42.40
3037;DHT22;1528;52.550;13.408;2023-12-14T16:46:43;5.40;42.60
3037;DHT22;1528;52.550;13.408;2023-12-14T16:49:30;5.40;42.90
3037;DHT22;1528;52.550;13.408;2023-12-14T16:52:16;5.40;43.40
3037;DHT22;1528;52.550;13.408;2023-12-14T16:55:02;5.40;42.40
3037;DHT22;1528;52.550;13.408;2023-12-14T16:57:48;5.50;42.80
3037;DHT22;1528;52.550;13.408;2023-12-14T17:00:33;5.40;42.40
3037;DHT22;1528;52.550;13.408;2023-12-14T17:03:19;5.40;42.30
3037;DHT22;1528;52.550;13.408;2023-12-14T17:06:06;5.40;42.10
3037;DHT22;1528;52.550;13.408;2023-12-14T17:08:54;5.40;41.80
3037;DHT22;1528;52.550;13.408;2023-12-14T17:11:39;5.40;42.00
3037;DHT22;1528;52.550;13.408;2023-12-14T17:14:25;5.40;42.00
3037;DHT22;1528;52.550;13.408;2023-12-14T17:17:11;5.30;42.30
3037;DHT22;1528;52.550;13.408;2023-12-14T17:19:56;5.20;42.40
3037;DHT22;1528;52.550;13.408;2023-12-14T17:22:44;5.30;42.60
3037;DHT22;1528;52.550;13.408;2023-12-14T17:25:29;5.30;42.40
3037;DHT22;1528;52.550;13.408;2023-12-14T17:28:15;5.30;42.30
3037;DHT22;1528;52.550;13.408;2023-12-14T17:31:01;5.30;42.50
3037;DHT22;1528;52.550;13.408;2023-12-14T17:33:47;5.30;42.60
3037;DHT22;1528;52.550;13.408;2023-12-14T17:36:41;5.30;42.60
3037;DHT22;1528;52.550;13.408;2023-12-14T17:39:28;5.30;42.40
3037;DHT22;1528;52.550;13.408;2023-12-14T17:42:14;5.20;42.40
3037;DHT22;1528;52.550;13.408;2023-12-14T17:45:00;5.20;42.60
3037;DHT22;1528;52.550;13.408;2023-12-14T17:47:45;5.20;42.70
3037;DHT22;1528;52.550;13.408;2023-12-14T17:50:31;5.30;43.30
3037;DHT22;1528;52.550;13.408;2023-12-14T17:53:17;5.50;42.90
3037;DHT22;1528;52.550;13.408;2023-12-14T17:56:05;5.30;42.70
3037;DHT22;1528;52.550;13.408;2023-12-14T17:58:50;5.20;42.60
3037;DHT22;1528;52.550;13.408;2023-12-14T18:01:43;5.20;42.70
3037;DHT22;1528;52.550;13.408;2023-12-14T18:04:28;5.30;43.00
3037;DHT22;1528;52.550;13.408;2023-12-14T18:07:14;5.30;42.80
3037;DHT22;1528;52.550;13.408;2023-12-14T18:10:00;5.40;42.80
3037;DHT22;1528;52.550;13.408;2023-12-14T18:12:50;5.20;42.40